createdAt,value
2018-09-03T00:02:20.972Z,6.73
2018-09-03T00:04:48.894Z,4.57
2018-09-03T00:07:16.839Z,5.70
2018-09-03T00:09:44.642Z,4.60
2018-09-03T00:12:12.511Z,5.43
2018-09-03T00:14:40.775Z,6.43
2018-09-03T00:17:09.054Z,5.93
2018-09-03T00:19:37.071Z,6.70
2018-09-03T00:22:04.994Z,6.37
2018-09-03T00:24:32.828Z,5.47
2018-09-03T00:27:00.674Z,5.40
2018-09-03T00:29:28.462Z,6.87
2018-09-03T00:32:01.888Z,4.73
2018-09-03T00:34:35.092Z,5.90
2018-09-03T00:37:08.635Z,4.03
2018-09-03T00:39:41.998Z,4.63
2018-09-03T00:42:15.650Z,6.37
2018-09-03T00:44:49.169Z,4.53
2018-09-03T00:47:16.960Z,5.37
2018-09-03T00:49:44.869Z,4.20
2018-09-03T00:52:12.655Z,4.47
2018-09-03T00:54:40.473Z,7.50
2018-09-03T00:57:08.575Z,4.43
2018-09-03T00:59:36.417Z,6.90
2018-09-03T01:02:04.254Z,5.00
2018-09-03T01:04:32.187Z,6.43
2018-09-03T01:06:59.921Z,5.07
2018-09-03T01:09:27.800Z,4.40
2018-09-03T01:11:55.683Z,5.10
2018-09-03T01:14:23.565Z,4.77
2018-09-03T01:16:51.363Z,5.23
2018-09-03T01:19:19.193Z,5.27
2018-09-03T01:21:47.009Z,6.50
2018-09-03T01:24:14.797Z,5.80
2018-09-03T01:26:42.615Z,5.20
2018-09-03T01:29:10.635Z,5.63
2018-09-03T01:31:38.457Z,4.67
2018-09-03T01:34:06.343Z,4.57
2018-09-03T01:36:34.253Z,5.47
2018-09-03T01:39:02.142Z,5.10
2018-09-03T01:41:29.929Z,4.23
2018-09-03T01:43:57.713Z,4.63
2018-09-03T01:46:25.481Z,7.93
2018-09-03T01:48:53.378Z,5.77
2018-09-03T01:51:21.167Z,4.60
2018-09-03T01:53:48.926Z,4.17
2018-09-03T01:56:16.786Z,5.50
2018-09-03T01:58:44.655Z,4.53
2018-09-03T02:01:12.400Z,5.33
2018-09-03T02:03:40.167Z,7.70
2018-09-03T02:06:08.173Z,5.70
2018-09-03T02:08:35.968Z,6.20
2018-09-03T02:11:03.761Z,6.83
2018-09-03T02:13:32.749Z,5.53
2018-09-03T02:16:00.572Z,5.27
2018-09-03T02:18:28.323Z,5.30
2018-09-03T02:20:56.216Z,5.97
2018-09-03T02:23:24.036Z,8.23
2018-09-03T02:25:51.820Z,5.73
2018-09-03T02:28:19.659Z,5.00
2018-09-03T02:30:47.407Z,4.90
2018-09-03T02:33:15.164Z,6.77
2018-09-03T02:35:43.011Z,7.37
2018-09-03T02:38:10.805Z,6.93
2018-09-03T02:40:38.567Z,5.67
2018-09-03T02:43:06.357Z,5.87
2018-09-03T02:45:34.142Z,5.80
2018-09-03T02:48:01.956Z,5.97
2018-09-03T02:50:29.779Z,6.93
2018-09-03T02:52:57.635Z,7.10
2018-09-03T02:55:25.419Z,7.23
2018-09-03T02:57:53.274Z,8.53
2018-09-03T03:00:24.817Z,7.13
2018-09-03T03:02:53.069Z,5.23
2018-09-03T03:05:20.867Z,7.27
2018-09-03T03:07:48.643Z,7.00
2018-09-03T03:10:16.417Z,7.13
2018-09-03T03:12:44.204Z,6.13
2018-09-03T03:15:11.948Z,5.73
2018-09-03T03:17:39.831Z,7.50
2018-09-03T03:20:07.637Z,6.37
2018-09-03T03:22:35.430Z,8.20
2018-09-03T03:25:03.291Z,6.20
2018-09-03T03:27:31.068Z,6.23
2018-09-03T03:29:58.871Z,7.57
2018-09-03T03:32:26.635Z,7.13
2018-09-03T03:34:54.391Z,6.90
2018-09-03T03:37:22.151Z,8.07
2018-09-03T03:39:49.959Z,8.03
2018-09-03T03:42:17.735Z,7.13
2018-09-03T03:44:45.561Z,9.97
2018-09-03T03:47:13.323Z,7.07
2018-09-03T03:49:41.135Z,8.53
2018-09-03T03:52:09.097Z,6.70
2018-09-03T03:54:37.105Z,7.97
2018-09-03T03:57:04.991Z,6.07
2018-09-03T03:59:32.848Z,5.80
2018-09-03T04:02:00.788Z,6.27
2018-09-03T04:04:28.572Z,5.77
2018-09-03T04:06:56.473Z,6.37
2018-09-03T04:09:24.375Z,7.33
2018-09-03T04:11:52.271Z,7.50
2018-09-03T04:14:20.189Z,7.30
2018-09-03T04:16:48.057Z,7.37
2018-09-03T04:19:15.929Z,7.37
2018-09-03T04:21:43.837Z,6.53
2018-09-03T04:24:11.662Z,6.73
2018-09-03T04:26:39.375Z,6.90
2018-09-03T04:29:07.133Z,8.43
2018-09-03T04:31:34.977Z,6.93
2018-09-03T04:34:02.745Z,7.77
2018-09-03T04:36:30.509Z,8.33
2018-09-03T04:38:58.388Z,8.83
2018-09-03T04:41:26.174Z,7.80
2018-09-03T04:43:53.972Z,7.60
2018-09-03T04:46:21.823Z,8.40
2018-09-03T04:48:49.729Z,9.40
2018-09-03T04:51:17.537Z,8.47
2018-09-03T04:53:45.433Z,7.30
2018-09-03T04:56:13.331Z,6.57
2018-09-03T05:00:10.727Z,7.73
2018-09-03T05:02:38.621Z,6.83
2018-09-03T05:05:06.539Z,10.33
2018-09-03T05:07:34.358Z,8.03
2018-09-03T05:10:02.298Z,7.77
2018-09-03T05:12:30.192Z,8.53
2018-09-03T05:14:58.087Z,8.50
2018-09-03T05:17:26.002Z,7.40
2018-09-03T05:19:53.766Z,8.57
2018-09-03T05:22:21.625Z,9.23
2018-09-03T05:24:49.536Z,9.10
2018-09-03T05:27:17.412Z,8.83
2018-09-03T05:29:45.393Z,7.93
2018-09-03T05:32:13.305Z,8.20
2018-09-03T05:34:41.159Z,8.80
2018-09-03T05:37:09.055Z,9.00
2018-09-03T05:39:36.955Z,10.17
2018-09-03T05:42:05.144Z,8.80
2018-09-03T05:44:33.080Z,10.37
2018-09-03T05:47:01.161Z,9.87
2018-09-03T05:49:29.103Z,9.13
2018-09-03T05:51:57.059Z,9.53
2018-09-03T05:54:25.029Z,8.50
2018-09-03T05:56:52.899Z,8.80
2018-09-03T05:59:20.837Z,9.57
2018-09-03T06:01:48.825Z,9.20
2018-09-03T06:04:16.823Z,13.20
2018-09-03T06:06:44.693Z,9.33
2018-09-03T06:09:12.959Z,9.60
2018-09-03T06:11:40.934Z,10.00
2018-09-03T06:14:08.963Z,10.27
2018-09-03T06:16:36.906Z,9.80
2018-09-03T06:19:04.830Z,9.63
2018-09-03T06:21:32.669Z,10.03
2018-09-03T06:24:00.867Z,9.90
2018-09-03T06:26:28.752Z,9.67
2018-09-03T06:28:56.568Z,10.03
2018-09-03T06:31:24.437Z,9.17
2018-09-03T06:33:52.363Z,10.23
2018-09-03T06:36:20.252Z,10.40
2018-09-03T06:38:48.233Z,8.97
2018-09-03T06:41:16.154Z,13.40
2018-09-03T06:43:44.053Z,9.67
2018-09-03T06:46:11.890Z,10.10
2018-09-03T06:48:39.784Z,9.67
2018-09-03T06:51:07.610Z,10.00
2018-09-03T06:53:35.723Z,10.57
2018-09-03T06:56:03.575Z,11.70
2018-09-03T06:58:31.469Z,11.27
2018-09-03T07:00:59.337Z,10.50
2018-09-03T07:03:27.137Z,13.63
2018-09-03T07:05:54.966Z,11.10
2018-09-03T07:08:22.909Z,11.93
2018-09-03T07:10:50.690Z,12.20
2018-09-03T07:13:18.543Z,13.13
2018-09-03T07:15:46.369Z,12.33
2018-09-03T07:18:14.141Z,12.13
2018-09-03T07:20:41.909Z,11.10
2018-09-03T07:23:09.772Z,11.73
2018-09-03T07:25:37.739Z,11.43
2018-09-03T07:28:05.655Z,12.33
2018-09-03T07:30:33.629Z,12.17
2018-09-03T07:33:01.551Z,12.00
2018-09-03T07:35:29.520Z,12.70
2018-09-03T07:37:57.291Z,16.37
2018-09-03T07:40:25.106Z,13.50
2018-09-03T07:42:52.979Z,12.80
2018-09-03T07:45:20.855Z,13.53
2018-09-03T07:47:48.749Z,14.40
2018-09-03T07:50:16.661Z,13.37
2018-09-03T07:52:44.540Z,12.07
2018-09-03T07:55:12.490Z,12.30
2018-09-03T07:57:40.353Z,11.37
2018-09-03T08:00:08.489Z,11.63
2018-09-03T08:02:36.373Z,13.10
2018-09-03T08:05:04.441Z,15.73
2018-09-03T08:07:32.406Z,11.73
2018-09-03T08:10:00.301Z,12.47
2018-09-03T08:12:28.200Z,12.27
2018-09-03T08:14:56.139Z,13.80
2018-09-03T08:17:24.427Z,12.00
2018-09-03T08:19:52.291Z,13.07
2018-09-03T08:22:20.142Z,13.00
2018-09-03T08:24:48.059Z,12.87
2018-09-03T08:27:15.904Z,12.17
2018-09-03T08:29:43.814Z,13.50
2018-09-03T08:32:11.672Z,12.07
2018-09-03T08:34:39.473Z,11.90
2018-09-03T08:37:07.311Z,11.57
2018-09-03T08:39:35.104Z,11.40
2018-09-03T08:42:02.995Z,11.80
2018-09-03T08:44:30.874Z,12.20
2018-09-03T08:46:58.703Z,15.53
2018-09-03T08:49:26.618Z,12.70
2018-09-03T08:51:54.559Z,12.60
2018-09-03T08:54:22.420Z,12.13
2018-09-03T08:56:50.362Z,12.53
2018-09-03T08:59:18.285Z,12.93
2018-09-03T09:01:46.184Z,12.87
2018-09-03T09:04:14.106Z,12.30
2018-09-03T09:06:41.981Z,11.97
2018-09-03T09:09:09.812Z,13.60
2018-09-03T09:11:37.627Z,12.37
2018-09-03T09:14:05.454Z,12.43
2018-09-03T09:16:33.305Z,14.63
2018-09-03T09:19:01.168Z,12.63
2018-09-03T09:21:29.076Z,12.87
2018-09-03T09:23:56.918Z,13.60
2018-09-03T09:26:24.776Z,14.27
2018-09-03T09:28:52.676Z,14.37
2018-09-03T09:31:20.500Z,13.17
2018-09-03T09:33:48.270Z,12.67
2018-09-03T09:36:16.042Z,13.50
2018-09-03T09:38:43.896Z,13.47
2018-09-03T09:41:11.763Z,17.13
2018-09-03T09:43:39.572Z,12.60
2018-09-03T09:46:07.350Z,14.27
2018-09-03T09:48:35.118Z,13.70
2018-09-03T09:51:02.872Z,14.90
2018-09-03T09:53:30.925Z,14.90
2018-09-03T09:55:58.858Z,15.23
2018-09-03T09:58:27.322Z,14.23
2018-09-03T10:01:00.750Z,13.97
2018-09-03T10:03:28.594Z,16.47
2018-09-03T10:05:56.457Z,16.13
2018-09-03T10:08:24.326Z,16.53
2018-09-03T10:10:52.169Z,13.80
2018-09-03T10:13:20.053Z,15.63
2018-09-03T10:15:47.936Z,15.93
2018-09-03T10:18:15.802Z,13.67
2018-09-03T10:20:43.611Z,14.10
2018-09-03T10:23:11.532Z,15.40
2018-09-03T10:25:39.414Z,13.47
2018-09-03T10:28:07.268Z,15.03
2018-09-03T10:30:36.502Z,16.73
2018-09-03T10:33:04.349Z,17.13
2018-09-03T10:35:32.252Z,14.97
2018-09-03T10:38:00.181Z,13.67
2018-09-03T10:40:28.084Z,14.53
2018-09-03T10:42:56.344Z,13.80
2018-09-03T10:45:24.310Z,15.07
2018-09-03T10:47:52.122Z,14.77
2018-09-03T10:50:20.092Z,12.83
2018-09-03T10:52:47.955Z,13.87
2018-09-03T10:55:15.902Z,13.40
2018-09-03T10:57:44.878Z,13.97
2018-09-03T11:00:13.221Z,13.97
2018-09-03T11:02:41.101Z,12.73
2018-09-03T11:05:09.050Z,12.77
2018-09-03T11:07:36.898Z,16.57
2018-09-03T11:10:04.827Z,14.00
2018-09-03T11:12:32.732Z,15.63
2018-09-03T11:15:00.588Z,13.87
2018-09-03T11:17:28.496Z,14.57
2018-09-03T11:19:58.800Z,15.20
2018-09-03T11:22:26.672Z,14.20
2018-09-03T11:24:54.766Z,12.87
2018-09-03T11:27:22.590Z,14.77
2018-09-03T11:29:50.517Z,12.60
2018-09-03T11:32:18.322Z,12.57
2018-09-03T11:34:46.169Z,13.13
2018-09-03T11:37:14.048Z,12.70
2018-09-03T11:39:41.891Z,14.20
2018-09-03T11:42:09.764Z,11.77
2018-09-03T11:44:37.678Z,11.57
2018-09-03T11:47:05.844Z,10.43
2018-09-03T11:49:33.613Z,13.93
2018-09-03T11:52:01.508Z,12.87
2018-09-03T11:54:29.341Z,10.87
2018-09-03T11:56:57.173Z,10.73
2018-09-03T11:59:25.031Z,13.43
2018-09-03T12:01:52.857Z,10.97
2018-09-03T12:04:20.686Z,16.13
2018-09-03T12:06:48.646Z,11.83
2018-09-03T12:09:16.438Z,15.83
2018-09-03T12:11:44.340Z,12.33
2018-09-03T12:14:22.446Z,11.33
2018-09-03T12:16:50.462Z,11.23
2018-09-03T12:19:18.421Z,14.83
2018-09-03T12:21:46.217Z,11.00
2018-09-03T12:24:14.288Z,11.63
2018-09-03T12:26:42.212Z,10.63
2018-09-03T12:29:10.262Z,10.43
2018-09-03T12:31:38.108Z,14.93
2018-09-03T12:34:06.090Z,12.50
2018-09-03T12:36:34.058Z,14.40
2018-09-03T12:39:01.925Z,12.17
2018-09-03T12:41:29.860Z,12.87
2018-09-03T12:43:58.064Z,11.50
2018-09-03T12:46:25.973Z,12.27
2018-09-03T12:49:56.604Z,11.87
2018-09-03T12:52:24.422Z,10.13
2018-09-03T12:54:52.248Z,10.30
2018-09-03T12:57:20.520Z,10.77
2018-09-03T12:59:48.356Z,12.30
2018-09-03T13:02:16.226Z,12.83
2018-09-03T13:04:44.184Z,15.93
2018-09-03T13:07:12.102Z,14.27
2018-09-03T13:09:39.958Z,12.60
2018-09-03T13:12:07.828Z,13.53
2018-09-03T13:14:35.628Z,11.23
2018-09-03T13:17:03.720Z,15.77
2018-09-03T13:19:31.728Z,14.37
2018-09-03T13:21:59.577Z,12.10
2018-09-03T13:24:27.457Z,12.40
2018-09-03T13:26:55.507Z,13.83
2018-09-03T13:29:23.476Z,12.17
2018-09-03T13:31:52.800Z,13.43
2018-09-03T13:34:20.722Z,13.17
2018-09-03T13:36:48.569Z,12.27
2018-09-03T13:39:16.446Z,13.73
2018-09-03T13:41:44.338Z,13.87
2018-09-03T13:44:12.190Z,13.30
2018-09-03T13:46:40.050Z,14.73
2018-09-03T13:49:07.962Z,13.27
2018-09-03T13:51:35.844Z,14.63
2018-09-03T13:54:03.794Z,13.60
2018-09-03T13:56:31.697Z,14.03
2018-09-03T13:58:59.527Z,14.40
2018-09-03T14:01:27.699Z,12.97
2018-09-03T14:03:55.837Z,15.27
2018-09-03T14:06:24.117Z,19.60
2018-09-03T14:08:52.383Z,13.43
2018-09-03T14:11:20.643Z,13.67
2018-09-03T14:13:48.955Z,15.27
2018-09-03T14:16:17.060Z,13.73
2018-09-03T14:18:45.201Z,16.33
2018-09-03T14:21:13.281Z,13.33
2018-09-03T14:23:41.606Z,13.73
2018-09-03T14:26:09.890Z,15.87
2018-09-03T14:28:40.028Z,14.13
2018-09-03T14:31:08.596Z,14.93
2018-09-03T14:33:36.938Z,14.93
2018-09-03T14:36:05.264Z,17.67
2018-09-03T14:38:33.638Z,16.00
2018-09-03T14:41:01.732Z,15.93
2018-09-03T14:43:29.794Z,15.13
2018-09-03T14:45:58.155Z,16.67
2018-09-03T14:48:26.344Z,15.77
2018-09-03T14:50:54.446Z,15.87
2018-09-03T14:53:22.344Z,16.53
2018-09-03T14:55:50.822Z,15.47
2018-09-03T14:58:19.261Z,19.80
2018-09-03T15:00:47.390Z,17.23
2018-09-03T15:03:15.637Z,14.23
2018-09-03T15:05:44.014Z,14.13
2018-09-03T15:08:12.715Z,15.37
2018-09-03T15:10:41.260Z,14.13
2018-09-03T15:13:09.240Z,14.33
2018-09-03T15:15:37.316Z,13.43
2018-09-03T15:18:05.888Z,12.37
2018-09-03T15:20:34.402Z,12.13
2018-09-03T15:23:02.868Z,10.67
2018-09-03T15:25:30.965Z,12.33
2018-09-03T15:27:59.199Z,10.47
2018-09-03T15:30:28.196Z,12.50
2018-09-03T15:32:56.513Z,13.17
2018-09-03T15:35:24.778Z,12.67
2018-09-03T15:37:53.137Z,10.40
2018-09-03T15:40:21.831Z,11.60
2018-09-03T15:42:49.833Z,14.60
2018-09-03T15:45:18.059Z,12.30
2018-09-03T15:47:46.364Z,12.63
2018-09-03T15:50:14.509Z,12.20
2018-09-03T15:52:42.685Z,13.30
2018-09-03T15:55:12.423Z,14.07
2018-09-03T15:57:40.396Z,14.17
2018-09-03T16:00:09.812Z,12.93
2018-09-03T16:02:38.322Z,9.90
2018-09-03T16:05:07.236Z,11.27
2018-09-03T16:07:35.739Z,14.13
2018-09-03T16:10:05.758Z,10.97
2018-09-03T16:12:33.880Z,12.67
2018-09-03T16:15:02.146Z,15.77
2018-09-03T16:17:30.710Z,12.73
2018-09-03T16:19:59.052Z,15.93
2018-09-03T16:22:27.360Z,16.67
2018-09-03T16:24:55.957Z,15.43
2018-09-03T16:27:24.381Z,19.40
2018-09-03T16:29:52.757Z,18.03
2018-09-03T16:32:21.110Z,14.83
2018-09-03T16:34:49.375Z,16.97
2018-09-03T16:37:17.821Z,15.63
2018-09-03T16:39:46.277Z,15.67
2018-09-03T16:42:14.417Z,14.97
2018-09-03T16:44:42.801Z,15.63
2018-09-03T16:47:11.152Z,15.23
2018-09-03T16:49:39.637Z,18.00
2018-09-03T16:52:08.148Z,16.20
2018-09-03T16:54:36.927Z,14.60
2018-09-03T16:57:05.709Z,16.07
2018-09-03T16:59:34.039Z,18.50
2018-09-03T17:02:02.541Z,14.50
2018-09-03T17:04:31.365Z,15.57
2018-09-03T17:06:59.964Z,17.47
2018-09-03T17:09:28.299Z,15.07
2018-09-03T17:11:56.833Z,12.80
2018-09-03T17:14:25.360Z,14.87
2018-09-03T17:16:54.325Z,13.73
2018-09-03T17:19:22.737Z,14.07
2018-09-03T17:21:51.294Z,16.30
2018-09-03T17:24:20.154Z,15.47
2018-09-03T17:26:48.814Z,14.10
2018-09-03T17:29:17.511Z,17.07
2018-09-03T17:31:45.922Z,16.47
2018-09-03T17:34:14.464Z,15.43
2018-09-03T17:36:43.118Z,15.27
2018-09-03T17:39:11.736Z,17.27
2018-09-03T17:41:40.399Z,16.30
2018-09-03T17:44:09.026Z,19.07
2018-09-03T17:46:37.909Z,18.20
2018-09-03T17:49:06.290Z,18.70
2018-09-03T17:51:34.578Z,18.20
2018-09-03T17:54:03.089Z,21.43
2018-09-03T17:56:31.465Z,15.80
2018-09-03T17:59:00.287Z,17.53
2018-09-03T18:01:28.841Z,17.70
2018-09-03T18:03:57.279Z,19.10
2018-09-03T18:06:25.666Z,19.73
2018-09-03T18:08:54.646Z,18.43
2018-09-03T18:11:23.162Z,18.37
2018-09-03T18:13:51.590Z,16.77
2018-09-03T18:16:20.102Z,15.60
2018-09-03T18:18:48.553Z,19.00
2018-09-03T18:21:16.844Z,15.43
2018-09-03T18:23:45.745Z,18.53
2018-09-03T18:26:14.296Z,17.40
2018-09-03T18:28:43.781Z,16.67
2018-09-03T18:31:12.937Z,19.20
2018-09-03T18:33:41.667Z,16.73
2018-09-03T18:36:10.346Z,21.33
2018-09-03T18:38:38.887Z,16.20
2018-09-03T18:41:07.365Z,16.77
2018-09-03T18:43:36.163Z,19.43
2018-09-03T18:46:04.615Z,16.83
2018-09-03T18:48:33.225Z,18.37
2018-09-03T18:51:01.849Z,19.33
2018-09-03T18:53:30.457Z,18.93
2018-09-03T18:55:58.987Z,20.07
2018-09-03T18:58:27.469Z,15.13
2018-09-03T19:00:56.226Z,23.37
2018-09-03T19:03:25.165Z,18.00
2018-09-03T19:05:53.844Z,18.40
2018-09-03T19:08:22.593Z,17.33
2018-09-03T19:10:51.203Z,18.10
2018-09-03T19:13:19.803Z,17.73
2018-09-03T19:15:48.652Z,19.33
2018-09-03T19:18:17.238Z,17.67
2018-09-03T19:20:45.933Z,18.07
2018-09-03T19:23:14.642Z,19.10
2018-09-03T19:25:43.128Z,20.37
2018-09-03T19:28:11.765Z,18.93
2018-09-03T19:30:40.656Z,22.87
2018-09-03T19:33:09.168Z,22.83
2018-09-03T19:35:38.084Z,19.70
2018-09-03T19:38:07.183Z,21.43
2018-09-03T19:40:35.929Z,21.27
2018-09-03T19:43:04.582Z,25.43
2018-09-03T19:45:33.542Z,25.33
2018-09-03T19:48:02.147Z,24.20
2018-09-03T19:50:30.778Z,25.27
2018-09-03T19:52:59.904Z,25.80
2018-09-03T19:55:28.528Z,23.67
2018-09-03T19:57:57.178Z,27.80
2018-09-03T20:00:26.092Z,27.87
2018-09-03T20:02:55.198Z,25.17
2018-09-03T20:05:24.224Z,27.30
2018-09-03T20:07:52.989Z,27.20
2018-09-03T20:10:23.060Z,29.70
2018-09-03T20:12:51.573Z,26.70
2018-09-03T20:15:27.256Z,28.87
2018-09-03T20:17:56.148Z,25.90
2018-09-03T20:20:24.826Z,28.70
2018-09-03T20:22:53.625Z,30.43
2018-09-03T20:25:22.207Z,25.87
2018-09-03T20:27:50.736Z,28.73
2018-09-03T20:30:20.279Z,29.33
2018-09-03T20:32:48.536Z,31.63
2018-09-03T20:35:16.981Z,31.30
2018-09-03T20:37:46.372Z,29.93
2018-09-03T20:40:14.958Z,33.70
2018-09-03T20:42:43.814Z,30.37
2018-09-03T20:45:12.824Z,31.07
2018-09-03T20:47:41.640Z,34.80
2018-09-03T20:50:11.269Z,31.23
2018-09-03T20:52:41.134Z,32.07
2018-09-03T20:55:10.162Z,32.03
2018-09-03T20:57:38.686Z,31.70
2018-09-03T21:00:07.900Z,31.63
2018-09-03T21:02:36.736Z,32.83
2018-09-03T21:05:06.196Z,32.93
2018-09-03T21:07:35.029Z,32.10
2018-09-03T21:10:03.876Z,31.43
2018-09-03T21:12:32.502Z,29.87
2018-09-03T21:15:01.534Z,30.37
2018-09-03T21:17:30.560Z,32.67
2018-09-03T21:19:59.019Z,33.40
2018-09-03T21:22:28.134Z,32.33
2018-09-03T21:24:56.658Z,31.63
2018-09-03T21:27:25.277Z,32.17
2018-09-03T21:29:53.943Z,32.83
2018-09-03T21:32:23.702Z,33.20
2018-09-03T21:34:52.430Z,31.40
2018-09-03T21:37:21.212Z,30.43
2018-09-03T21:39:49.868Z,31.63
2018-09-03T21:42:18.290Z,29.10
2018-09-03T21:44:47.093Z,27.23
2018-09-03T21:47:16.278Z,32.03
2018-09-03T21:49:44.951Z,32.00
2018-09-03T21:52:13.503Z,30.27
2018-09-03T21:54:42.285Z,30.90
2018-09-03T21:57:10.459Z,33.80
2018-09-03T21:59:38.947Z,30.97
2018-09-03T22:02:09.557Z,31.53
2018-09-03T22:04:39.968Z,34.13
2018-09-03T22:07:08.279Z,30.83
2018-09-03T22:09:37.041Z,32.37
2018-09-03T22:12:05.350Z,30.23
2018-09-03T22:14:33.621Z,29.77
2018-09-03T22:17:02.250Z,28.20
2018-09-03T22:19:30.594Z,30.33
2018-09-03T22:21:58.923Z,29.10
2018-09-03T22:24:27.520Z,29.00
2018-09-03T22:26:55.987Z,28.27
2018-09-03T22:29:25.298Z,34.60
2018-09-03T22:31:53.804Z,33.20
2018-09-03T22:34:21.903Z,32.43
2018-09-03T22:36:50.005Z,27.53
2018-09-03T22:39:18.367Z,29.70
2018-09-03T22:41:46.425Z,32.60
2018-09-03T22:44:15.939Z,29.33
2018-09-03T22:46:44.121Z,32.23
2018-09-03T22:49:12.389Z,29.57
2018-09-03T22:51:41.293Z,27.63
2018-09-03T22:54:09.589Z,33.10
2018-09-03T22:56:39.503Z,34.57
2018-09-03T22:59:07.633Z,31.03
2018-09-03T23:01:36.171Z,31.27
2018-09-03T23:04:04.510Z,33.43
2018-09-03T23:06:32.801Z,32.93
2018-09-03T23:09:01.385Z,35.87
2018-09-03T23:11:29.659Z,36.30
2018-09-03T23:13:58.127Z,35.43
2018-09-03T23:16:26.639Z,34.90
2018-09-03T23:18:54.957Z,38.47
2018-09-03T23:21:23.627Z,34.20
2018-09-03T23:23:52.371Z,31.13
2018-09-03T23:26:22.119Z,33.13
2018-09-03T23:28:53.457Z,32.60
2018-09-03T23:31:21.693Z,29.80
2018-09-03T23:33:49.823Z,34.47
2018-09-03T23:36:18.310Z,35.27
2018-09-03T23:38:46.389Z,37.03
2018-09-03T23:41:15.048Z,35.90
2018-09-03T23:43:43.533Z,31.73
2018-09-03T23:46:11.677Z,35.07
2018-09-03T23:48:40.464Z,34.77
2018-09-03T23:51:09.173Z,34.90
2018-09-03T23:53:38.219Z,37.87
2018-09-03T23:56:06.259Z,37.53
2018-09-03T23:58:34.629Z,41.13
